sensor_id;sensor_type;location;lat;lon;timestamp;temperature;humidity
47514;DHT22;33951;51.988;5.910;2022-09-09T05:02:30;15.80;99.90
47514;DHT22;33951;51.988;5.910;2022-09-09T05:04:56;15.70;99.90
47514;DHT22;33951;51.988;5.910;2022-09-09T05:07:22;15.70;99.90
47514;DHT22;33951;51.988;5.910;2022-09-09T05:09:47;15.70;99.90
47514;DHT22;33951;51.988;5.910;2022-09-09T05:12:15;15.60;99.90
47514;DHT22;33951;51.988;5.910;2022-09-09T07:25:28;16.30;99.90
47514;DHT22;33951;51.988;5.910;2022-09-09T07:31:49;16.30;99.90
47514;DHT22;33951;51.988;5.910;2022-09-09T07:34:15;16.30;99.90
47514;DHT22;33951;51.988;5.910;2022-09-09T07:36:40;16.40;99.90
47514;DHT22;33951;51.988;5.910;2022-09-09T07:39:09;16.50;99.90
47514;DHT22;33951;51.988;5.910;2022-09-09T07:41:47;16.50;99.90
47514;DHT22;33951;51.988;5.910;2022-09-09T07:44:15;16.50;99.90
47514;DHT22;33951;51.988;5.910;2022-09-09T07:46:41;16.70;99.90
47514;DHT22;33951;51.988;5.910;2022-09-09T07:49:08;16.70;99.90
47514;DHT22;33951;51.988;5.910;2022-09-09T07:51:40;16.70;99.90
47514;DHT22;33951;51.988;5.910;2022-09-09T07:54:11;16.70;99.90
47514;DHT22;33951;51.988;5.910;2022-09-09T07:56:39;16.70;99.90
47514;DHT22;33951;51.988;5.910;2022-09-09T07:59:08;16.60;99.90
47514;DHT22;33951;51.988;5.910;2022-09-09T08:01:38;16.60;99.90
47514;DHT22;33951;51.988;5.910;2022-09-09T08:04:07;16.70;99.90
47514;DHT22;33951;51.988;5.910;2022-09-09T08:06:36;16.80;99.90
47514;DHT22;33951;51.988;5.910;2022-09-09T08:09:04;16.80;99.90
47514;DHT22;33951;51.988;5.910;2022-09-09T08:11:30;16.90;99.90
47514;DHT22;33951;51.988;5.910;2022-09-09T08:13:56;17.00;99.90
47514;DHT22;33951;51.988;5.910;2022-09-09T08:16:24;16.90;99.90
47514;DHT22;33951;51.988;5.910;2022-09-09T08:18:51;17.00;99.90
47514;DHT22;33951;51.988;5.910;2022-09-09T08:21:20;17.00;99.90
47514;DHT22;33951;51.988;5.910;2022-09-09T08:23:51;17.00;99.90
47514;DHT22;33951;51.988;5.910;2022-09-09T08:26:22;17.20;99.90
47514;DHT22;33951;51.988;5.910;2022-09-09T08:28:50;17.10;99.90
47514;DHT22;33951;51.988;5.910;2022-09-09T08:31:22;17.00;99.90
47514;DHT22;33951;51.988;5.910;2022-09-09T08:33:49;17.00;99.90
47514;DHT22;33951;51.988;5.910;2022-09-09T08:36:37;17.00;99.90
47514;DHT22;33951;51.988;5.910;2022-09-09T08:39:23;17.10;99.90
47514;DHT22;33951;51.988;5.910;2022-09-09T08:48:15;17.00;99.90
47514;DHT22;33951;51.988;5.910;2022-09-09T08:50:49;17.00;99.90
47514;DHT22;33951;51.988;5.910;2022-09-09T08:53:35;17.00;99.90
47514;DHT22;33951;51.988;5.910;2022-09-09T08:56:09;17.10;99.90
47514;DHT22;33951;51.988;5.910;2022-09-09T08:58:45;17.10;99.90
47514;DHT22;33951;51.988;5.910;2022-09-09T09:01:23;17.20;99.90
47514;DHT22;33951;51.988;5.910;2022-09-09T09:12:19;17.50;99.90
47514;DHT22;33951;51.988;5.910;2022-09-09T09:14:47;17.40;99.90
47514;DHT22;33951;51.988;5.910;2022-09-09T09:17:21;17.40;99.90
47514;DHT22;33951;51.988;5.910;2022-09-09T09:19:54;17.50;99.90
47514;DHT22;33951;51.988;5.910;2022-09-09T09:22:30;17.50;99.90
47514;DHT22;33951;51.988;5.910;2022-09-09T09:28:12;17.50;99.90
47514;DHT22;33951;51.988;5.910;2022-09-09T09:30:55;17.50;99.90
47514;DHT22;33951;51.988;5.910;2022-09-09T09:33:27;17.60;99.90
47514;DHT22;33951;51.988;5.910;2022-09-09T09:36:06;17.60;99.90
47514;DHT22;33951;51.988;5.910;2022-09-09T09:38:34;17.60;99.90
47514;DHT22;33951;51.988;5.910;2022-09-09T09:41:03;17.50;99.90
47514;DHT22;33951;51.988;5.910;2022-09-09T09:43:31;17.40;99.90
47514;DHT22;33951;51.988;5.910;2022-09-09T09:45:58;17.70;99.90
47514;DHT22;33951;51.988;5.910;2022-09-09T09:48:26;17.70;99.90
47514;DHT22;33951;51.988;5.910;2022-09-09T09:51:00;17.80;99.90
47514;DHT22;33951;51.988;5.910;2022-09-09T09:53:32;17.90;99.90
47514;DHT22;33951;51.988;5.910;2022-09-09T09:56:04;18.10;99.90
47514;DHT22;33951;51.988;5.910;2022-09-09T09:58:31;18.30;99.90
47514;DHT22;33951;51.988;5.910;2022-09-09T10:01:02;18.30;99.90
47514;DHT22;33951;51.988;5.910;2022-09-09T10:03:33;18.40;99.90
47514;DHT22;33951;51.988;5.910;2022-09-09T10:06:04;18.30;99.90
47514;DHT22;33951;51.988;5.910;2022-09-09T10:08:34;18.30;99.90
47514;DHT22;33951;51.988;5.910;2022-09-09T10:14:14;18.30;99.90
47514;DHT22;33951;51.988;5.910;2022-09-09T10:17:15;18.20;99.90
47514;DHT22;33951;51.988;5.910;2022-09-09T10:22:33;18.00;99.90
47514;DHT22;33951;51.988;5.910;2022-09-09T10:27:47;17.90;99.90
47514;DHT22;33951;51.988;5.910;2022-09-09T10:30:46;17.90;99.90
47514;DHT22;33951;51.988;5.910;2022-09-09T10:36:25;18.00;99.90
47514;DHT22;33951;51.988;5.910;2022-09-09T10:39:02;18.10;99.90
47514;DHT22;33951;51.988;5.910;2022-09-09T10:41:42;18.10;99.90
47514;DHT22;33951;51.988;5.910;2022-09-09T10:49:52;18.30;99.90
47514;DHT22;33951;51.988;5.910;2022-09-09T10:55:14;18.10;99.90
47514;DHT22;33951;51.988;5.910;2022-09-09T10:57:52;17.90;99.90
47514;DHT22;33951;51.988;5.910;2022-09-09T11:03:04;17.90;99.90
47514;DHT22;33951;51.988;5.910;2022-09-09T11:08:15;18.20;99.90
47514;DHT22;33951;51.988;5.910;2022-09-09T11:10:51;18.20;99.90
47514;DHT22;33951;51.988;5.910;2022-09-09T11:16:32;18.30;99.90
47514;DHT22;33951;51.988;5.910;2022-09-09T11:19:09;18.30;99.90
47514;DHT22;33951;51.988;5.910;2022-09-09T11:21:46;18.30;99.90
47514;DHT22;33951;51.988;5.910;2022-09-09T11:24:50;18.20;99.90
47514;DHT22;33951;51.988;5.910;2022-09-09T11:27:15;17.90;99.90
47514;DHT22;33951;51.988;5.910;2022-09-09T11:30:20;17.60;99.90
47514;DHT22;33951;51.988;5.910;2022-09-09T11:39:22;17.80;99.90
47514;DHT22;33951;51.988;5.910;2022-09-09T11:41:53;17.90;99.90
47514;DHT22;33951;51.988;5.910;2022-09-09T11:44:33;17.80;99.90
47514;DHT22;33951;51.988;5.910;2022-09-09T11:46:59;17.80;99.90
47514;DHT22;33951;51.988;5.910;2022-09-09T11:49:42;17.80;99.90
47514;DHT22;33951;51.988;5.910;2022-09-09T11:52:37;17.90;99.90
47514;DHT22;33951;51.988;5.910;2022-09-09T11:55:11;18.00;99.90
47514;DHT22;33951;51.988;5.910;2022-09-09T11:57:38;18.00;99.90
47514;DHT22;33951;51.988;5.910;2022-09-09T12:00:05;18.00;99.90
47514;DHT22;33951;51.988;5.910;2022-09-09T12:02:31;18.00;99.90
47514;DHT22;33951;51.988;5.910;2022-09-09T12:05:11;18.00;99.90
47514;DHT22;33951;51.988;5.910;2022-09-09T12:07:51;17.80;99.90
47514;DHT22;33951;51.988;5.910;2022-09-09T12:10:20;17.90;99.90
47514;DHT22;33951;51.988;5.910;2022-09-09T12:12:47;18.00;99.90
47514;DHT22;33951;51.988;5.910;2022-09-09T12:15:20;18.10;99.90
47514;DHT22;33951;51.988;5.910;2022-09-09T12:17:49;18.20;99.90
47514;DHT22;33951;51.988;5.910;2022-09-09T12:31:26;18.20;99.90
47514;DHT22;33951;51.988;5.910;2022-09-09T12:33:50;18.10;99.90
47514;DHT22;33951;51.988;5.910;2022-09-09T12:36:38;17.90;99.90
47514;DHT22;33951;51.988;5.910;2022-09-09T12:39:22;18.00;99.90
47514;DHT22;33951;51.988;5.910;2022-09-09T12:41:53;18.10;99.90
47514;DHT22;33951;51.988;5.910;2022-09-09T12:44:24;18.20;99.90
47514;DHT22;33951;51.988;5.910;2022-09-09T12:46:51;18.20;99.90
47514;DHT22;33951;51.988;5.910;2022-09-09T12:49:27;18.10;99.90
47514;DHT22;33951;51.988;5.910;2022-09-09T12:51:55;18.20;99.90
47514;DHT22;33951;51.988;5.910;2022-09-09T12:54:22;18.20;99.90
47514;DHT22;33951;51.988;5.910;2022-09-09T12:56:49;18.20;99.90
47514;DHT22;33951;51.988;5.910;2022-09-09T12:59:26;18.00;99.90
47514;DHT22;33951;51.988;5.910;2022-09-09T13:04:44;18.00;99.90
47514;DHT22;33951;51.988;5.910;2022-09-09T13:07:12;18.10;99.90
47514;DHT22;33951;51.988;5.910;2022-09-09T13:09:39;18.10;99.90
47514;DHT22;33951;51.988;5.910;2022-09-09T13:12:07;18.10;99.90
47514;DHT22;33951;51.988;5.910;2022-09-09T13:14:37;18.10;99.90
47514;DHT22;33951;51.988;5.910;2022-09-09T13:17:04;17.90;99.90
47514;DHT22;33951;51.988;5.910;2022-09-09T13:19:36;17.80;99.90
47514;DHT22;33951;51.988;5.910;2022-09-09T13:22:31;17.70;99.90
47514;DHT22;33951;51.988;5.910;2022-09-09T13:27:41;17.70;99.90
47514;DHT22;33951;51.988;5.910;2022-09-09T13:30:31;17.90;99.90
47514;DHT22;33951;51.988;5.910;2022-09-09T13:33:05;18.00;99.90
47514;DHT22;33951;51.988;5.910;2022-09-09T13:35:31;18.10;99.90
47514;DHT22;33951;51.988;5.910;2022-09-09T13:37:58;18.10;99.90
47514;DHT22;33951;51.988;5.910;2022-09-09T13:40:25;18.20;99.90
47514;DHT22;33951;51.988;5.910;2022-09-09T13:42:53;18.30;99.90
47514;DHT22;33951;51.988;5.910;2022-09-09T13:45:21;18.30;99.90
47514;DHT22;33951;51.988;5.910;2022-09-09T13:47:47;18.40;99.90
47514;DHT22;33951;51.988;5.910;2022-09-09T13:50:29;18.40;99.90
47514;DHT22;33951;51.988;5.910;2022-09-09T13:52:56;18.40;99.90
47514;DHT22;33951;51.988;5.910;2022-09-09T13:55:24;18.40;99.90
47514;DHT22;33951;51.988;5.910;2022-09-09T13:58:00;18.60;99.90
47514;DHT22;33951;51.988;5.910;2022-09-09T14:00:30;18.60;99.90
47514;DHT22;33951;51.988;5.910;2022-09-09T14:02:56;18.40;99.90
47514;DHT22;33951;51.988;5.910;2022-09-09T14:05:22;18.40;99.90
47514;DHT22;33951;51.988;5.910;2022-09-09T14:07:49;18.20;99.90
47514;DHT22;33951;51.988;5.910;2022-09-09T14:10:15;18.30;99.90
47514;DHT22;33951;51.988;5.910;2022-09-09T14:12:41;18.30;99.90
47514;DHT22;33951;51.988;5.910;2022-09-09T14:15:09;18.20;99.90
47514;DHT22;33951;51.988;5.910;2022-09-09T14:17:35;18.30;99.90
47514;DHT22;33951;51.988;5.910;2022-09-09T14:20:05;18.30;99.90
47514;DHT22;33951;51.988;5.910;2022-09-09T14:22:36;18.30;99.90
47514;DHT22;33951;51.988;5.910;2022-09-09T14:25:02;18.30;99.90
47514;DHT22;33951;51.988;5.910;2022-09-09T14:27:28;18.30;99.90
47514;DHT22;33951;51.988;5.910;2022-09-09T14:29:56;18.30;99.90
47514;DHT22;33951;51.988;5.910;2022-09-09T14:32:23;18.30;99.90
47514;DHT22;33951;51.988;5.910;2022-09-09T14:34:48;18.40;99.90
47514;DHT22;33951;51.988;5.910;2022-09-09T14:37:15;18.30;99.90
47514;DHT22;33951;51.988;5.910;2022-09-09T14:39:42;18.30;99.90
47514;DHT22;33951;51.988;5.910;2022-09-09T14:42:10;18.30;99.90
47514;DHT22;33951;51.988;5.910;2022-09-09T14:44:37;18.30;99.90
47514;DHT22;33951;51.988;5.910;2022-09-09T14:47:06;18.40;99.90
47514;DHT22;33951;51.988;5.910;2022-09-09T14:49:36;18.50;99.90
47514;DHT22;33951;51.988;5.910;2022-09-09T14:52:02;18.60;99.90
47514;DHT22;33951;51.988;5.910;2022-09-09T14:54:28;18.70;99.90
47514;DHT22;33951;51.988;5.910;2022-09-09T14:56:54;18.70;99.90
47514;DHT22;33951;51.988;5.910;2022-09-09T14:59:20;18.90;99.90
47514;DHT22;33951;51.988;5.910;2022-09-09T15:01:47;18.90;99.90
47514;DHT22;33951;51.988;5.910;2022-09-09T15:04:13;18.80;99.90
47514;DHT22;33951;51.988;5.910;2022-09-09T15:06:45;18.90;99.90
47514;DHT22;33951;51.988;5.910;2022-09-09T15:09:16;18.90;99.90
47514;DHT22;33951;51.988;5.910;2022-09-09T15:11:41;19.00;99.90
47514;DHT22;33951;51.988;5.910;2022-09-09T15:14:09;19.20;99.90
47514;DHT22;33951;51.988;5.910;2022-09-09T15:16:35;19.10;99.90
47514;DHT22;33951;51.988;5.910;2022-09-09T15:19:02;18.90;99.90
47514;DHT22;33951;51.988;5.910;2022-09-09T15:21:34;18.80;99.90
47514;DHT22;33951;51.988;5.910;2022-09-09T15:24:03;18.80;99.90
47514;DHT22;33951;51.988;5.910;2022-09-09T15:26:30;18.80;99.90
47514;DHT22;33951;51.988;5.910;2022-09-09T15:28:56;18.80;99.90
47514;DHT22;33951;51.988;5.910;2022-09-09T15:31:29;18.70;99.90
47514;DHT22;33951;51.988;5.910;2022-09-09T15:33:59;18.60;99.90
47514;DHT22;33951;51.988;5.910;2022-09-09T15:36:31;18.60;99.90
47514;DHT22;33951;51.988;5.910;2022-09-09T15:39:03;18.60;99.90
47514;DHT22;33951;51.988;5.910;2022-09-09T15:41:29;18.60;99.90
47514;DHT22;33951;51.988;5.910;2022-09-09T15:43:57;18.60;99.90
47514;DHT22;33951;51.988;5.910;2022-09-09T15:46:38;18.60;99.90
47514;DHT22;33951;51.988;5.910;2022-09-09T15:49:24;18.60;99.90
47514;DHT22;33951;51.988;5.910;2022-09-09T15:51:56;18.60;99.90
47514;DHT22;33951;51.988;5.910;2022-09-09T15:54:24;18.70;99.90
47514;DHT22;33951;51.988;5.910;2022-09-09T15:56:54;18.80;99.90
47514;DHT22;33951;51.988;5.910;2022-09-09T15:59:22;18.80;99.90
47514;DHT22;33951;51.988;5.910;2022-09-09T16:01:49;18.70;99.90
47514;DHT22;33951;51.988;5.910;2022-09-09T16:04:18;18.60;99.90
47514;DHT22;33951;51.988;5.910;2022-09-09T16:07:00;18.70;99.90
47514;DHT22;33951;51.988;5.910;2022-09-09T16:09:34;18.30;99.90
47514;DHT22;33951;51.988;5.910;2022-09-09T16:12:20;17.10;99.90
47514;DHT22;33951;51.988;5.910;2022-09-09T16:14:46;16.20;99.90
47514;DHT22;33951;51.988;5.910;2022-09-09T16:17:12;15.90;99.90
47514;DHT22;33951;51.988;5.910;2022-09-09T16:19:37;15.80;99.90
47514;DHT22;33951;51.988;5.910;2022-09-09T16:22:04;15.80;99.90
47514;DHT22;33951;51.988;5.910;2022-09-09T16:24:30;15.80;99.90
47514;DHT22;33951;51.988;5.910;2022-09-09T16:26:56;15.90;99.90
47514;DHT22;33951;51.988;5.910;2022-09-09T16:29:22;16.20;99.90
47514;DHT22;33951;51.988;5.910;2022-09-09T16:31:48;16.40;99.90
47514;DHT22;33951;51.988;5.910;2022-09-09T16:34:18;16.70;99.90
47514;DHT22;33951;51.988;5.910;2022-09-09T16:36:44;16.80;99.90
47514;DHT22;33951;51.988;5.910;2022-09-09T16:39:15;16.90;99.90
47514;DHT22;33951;51.988;5.910;2022-09-09T16:41:43;16.70;99.90
47514;DHT22;33951;51.988;5.910;2022-09-09T16:44:11;16.80;99.90
47514;DHT22;33951;51.988;5.910;2022-09-09T16:46:39;16.60;99.90
47514;DHT22;33951;51.988;5.910;2022-09-09T16:49:08;16.70;99.90
47514;DHT22;33951;51.988;5.910;2022-09-09T16:51:41;16.70;99.90
47514;DHT22;33951;51.988;5.910;2022-09-09T16:54:08;16.60;99.90
47514;DHT22;33951;51.988;5.910;2022-09-09T16:56:36;16.60;99.90
47514;DHT22;33951;51.988;5.910;2022-09-09T16:59:09;16.60;99.90
47514;DHT22;33951;51.988;5.910;2022-09-09T17:01:37;16.50;99.90
47514;DHT22;33951;51.988;5.910;2022-09-09T17:04:06;16.50;99.90
47514;DHT22;33951;51.988;5.910;2022-09-09T17:06:33;16.40;99.90
47514;DHT22;33951;51.988;5.910;2022-09-09T17:09:07;16.60;99.90
47514;DHT22;33951;51.988;5.910;2022-09-09T17:11:34;16.70;99.90
47514;DHT22;33951;51.988;5.910;2022-09-09T17:14:02;16.60;99.90
47514;DHT22;33951;51.988;5.910;2022-09-09T17:16:30;16.60;99.90
47514;DHT22;33951;51.988;5.910;2022-09-09T17:18:57;16.60;99.90
47514;DHT22;33951;51.988;5.910;2022-09-09T17:21:25;16.70;99.90
47514;DHT22;33951;51.988;5.910;2022-09-09T17:23:52;16.80;99.90
47514;DHT22;33951;51.988;5.910;2022-09-09T17:26:21;17.00;99.90
47514;DHT22;33951;51.988;5.910;2022-09-09T17:28:47;17.20;99.90
47514;DHT22;33951;51.988;5.910;2022-09-09T17:31:15;17.00;99.90
47514;DHT22;33951;51.988;5.910;2022-09-09T17:33:43;16.70;99.90
47514;DHT22;33951;51.988;5.910;2022-09-09T17:38:37;16.90;99.90
47514;DHT22;33951;51.988;5.910;2022-09-09T17:41:07;16.80;99.90
47514;DHT22;33951;51.988;5.910;2022-09-09T17:43:34;16.70;99.90
47514;DHT22;33951;51.988;5.910;2022-09-09T17:46:13;16.60;99.90
47514;DHT22;33951;51.988;5.910;2022-09-09T17:48:40;16.80;99.90
47514;DHT22;33951;51.988;5.910;2022-09-09T17:51:07;16.90;99.90
47514;DHT22;33951;51.988;5.910;2022-09-09T17:53:38;16.90;99.90
47514;DHT22;33951;51.988;5.910;2022-09-09T17:56:05;16.90;99.90
47514;DHT22;33951;51.988;5.910;2022-09-09T17:58:31;16.70;99.90
47514;DHT22;33951;51.988;5.910;2022-09-09T18:01:02;16.60;99.90
47514;DHT22;33951;51.988;5.910;2022-09-09T18:03:29;16.70;99.90
47514;DHT22;33951;51.988;5.910;2022-09-09T18:06:00;16.70;99.90
47514;DHT22;33951;51.988;5.910;2022-09-09T18:08:28;16.50;99.90
47514;DHT22;33951;51.988;5.910;2022-09-09T18:10:54;16.40;99.90
47514;DHT22;33951;51.988;5.910;2022-09-09T18:13:21;16.50;99.90
47514;DHT22;33951;51.988;5.910;2022-09-09T18:15:46;16.40;99.90
47514;DHT22;33951;51.988;5.910;2022-09-09T18:18:12;16.50;99.90
47514;DHT22;33951;51.988;5.910;2022-09-09T18:20:39;16.50;99.90
47514;DHT22;33951;51.988;5.910;2022-09-09T18:23:05;16.50;99.90
47514;DHT22;33951;51.988;5.910;2022-09-09T18:25:31;16.60;99.90
47514;DHT22;33951;51.988;5.910;2022-09-09T18:27:56;16.50;99.90
47514;DHT22;33951;51.988;5.910;2022-09-09T18:30:23;16.60;99.90
47514;DHT22;33951;51.988;5.910;2022-09-09T18:32:49;16.70;99.90
47514;DHT22;33951;51.988;5.910;2022-09-09T18:35:16;16.60;99.90
47514;DHT22;33951;51.988;5.910;2022-09-09T18:37:42;16.50;99.90
47514;DHT22;33951;51.988;5.910;2022-09-09T18:40:07;16.40;99.90
47514;DHT22;33951;51.988;5.910;2022-09-09T18:42:33;16.30;99.90
47514;DHT22;33951;51.988;5.910;2022-09-09T18:44:59;16.40;99.90
47514;DHT22;33951;51.988;5.910;2022-09-09T18:47:25;16.30;99.90
47514;DHT22;33951;51.988;5.910;2022-09-09T18:49:50;16.30;99.90
47514;DHT22;33951;51.988;5.910;2022-09-09T18:52:16;16.20;99.90
47514;DHT22;33951;51.988;5.910;2022-09-09T18:54:41;16.30;99.90
47514;DHT22;33951;51.988;5.910;2022-09-09T18:57:13;16.30;99.90
47514;DHT22;33951;51.988;5.910;2022-09-09T18:59:38;16.30;99.90
47514;DHT22;33951;51.988;5.910;2022-09-09T19:02:04;16.40;99.90
47514;DHT22;33951;51.988;5.910;2022-09-09T19:04:30;16.30;99.90
47514;DHT22;33951;51.988;5.910;2022-09-09T19:06:57;16.40;99.90
47514;DHT22;33951;51.988;5.910;2022-09-09T19:09:28;16.40;99.90
47514;DHT22;33951;51.988;5.910;2022-09-09T19:11:55;16.30;99.90
47514;DHT22;33951;51.988;5.910;2022-09-09T19:14:31;16.10;99.90
47514;DHT22;33951;51.988;5.910;2022-09-09T19:16:56;16.10;99.90
47514;DHT22;33951;51.988;5.910;2022-09-09T19:19:28;16.20;99.90
47514;DHT22;33951;51.988;5.910;2022-09-09T19:21:54;16.20;99.90
47514;DHT22;33951;51.988;5.910;2022-09-09T19:24:26;16.30;99.90
47514;DHT22;33951;51.988;5.910;2022-09-09T19:26:54;16.30;99.90
47514;DHT22;33951;51.988;5.910;2022-09-09T19:29:26;16.20;99.90
47514;DHT22;33951;51.988;5.910;2022-09-09T19:31:52;16.20;99.90
47514;DHT22;33951;51.988;5.910;2022-09-09T19:34:20;16.00;99.90
47514;DHT22;33951;51.988;5.910;2022-09-09T19:36:46;16.00;99.90
47514;DHT22;33951;51.988;5.910;2022-09-09T19:39:13;16.00;99.90
47514;DHT22;33951;51.988;5.910;2022-09-09T19:41:39;15.90;99.90
47514;DHT22;33951;51.988;5.910;2022-09-09T19:44:11;15.80;99.90
47514;DHT22;33951;51.988;5.910;2022-09-09T19:46:39;15.90;99.90
47514;DHT22;33951;51.988;5.910;2022-09-09T19:49:07;15.90;99.90
47514;DHT22;33951;51.988;5.910;2022-09-09T19:51:35;15.90;99.90
47514;DHT22;33951;51.988;5.910;2022-09-09T19:54:07;16.00;99.90
47514;DHT22;33951;51.988;5.910;2022-09-09T19:56:35;16.10;99.90
47514;DHT22;33951;51.988;5.910;2022-09-09T19:59:01;16.20;99.90
47514;DHT22;33951;51.988;5.910;2022-09-09T20:01:30;16.20;99.90
47514;DHT22;33951;51.988;5.910;2022-09-09T20:04:00;16.10;99.90
47514;DHT22;33951;51.988;5.910;2022-09-09T20:06:30;16.20;99.90
47514;DHT22;33951;51.988;5.910;2022-09-09T20:08:56;16.20;99.90
47514;DHT22;33951;51.988;5.910;2022-09-09T20:11:26;16.20;99.90
47514;DHT22;33951;51.988;5.910;2022-09-09T20:13:55;16.20;99.90
47514;DHT22;33951;51.988;5.910;2022-09-09T20:16:28;16.30;99.90
47514;DHT22;33951;51.988;5.910;2022-09-09T20:18:57;16.30;99.90
47514;DHT22;33951;51.988;5.910;2022-09-09T20:23:55;16.40;99.90
47514;DHT22;33951;51.988;5.910;2022-09-09T20:26:22;16.60;99.90
47514;DHT22;33951;51.988;5.910;2022-09-09T20:28:51;16.50;99.90
47514;DHT22;33951;51.988;5.910;2022-09-09T20:31:19;16.70;99.90
47514;DHT22;33951;51.988;5.910;2022-09-09T20:33:45;16.60;99.90
47514;DHT22;33951;51.988;5.910;2022-09-09T20:36:17;16.60;99.90
47514;DHT22;33951;51.988;5.910;2022-09-09T20:38:48;16.70;99.90
47514;DHT22;33951;51.988;5.910;2022-09-09T20:41:15;16.60;99.90
47514;DHT22;33951;51.988;5.910;2022-09-09T20:43:55;16.60;99.90
47514;DHT22;33951;51.988;5.910;2022-09-09T20:46:33;16.60;99.90
47514;DHT22;33951;51.988;5.910;2022-09-09T20:49:04;16.60;99.90
47514;DHT22;33951;51.988;5.910;2022-09-09T20:51:32;16.60;99.90
47514;DHT22;33951;51.988;5.910;2022-09-09T20:54:01;16.50;99.90
47514;DHT22;33951;51.988;5.910;2022-09-09T20:56:29;16.50;99.90
47514;DHT22;33951;51.988;5.910;2022-09-09T20:58:57;16.40;99.90
47514;DHT22;33951;51.988;5.910;2022-09-09T21:01:22;16.30;99.90
47514;DHT22;33951;51.988;5.910;2022-09-09T21:03:48;16.30;99.90
47514;DHT22;33951;51.988;5.910;2022-09-09T21:06:14;16.30;99.90
47514;DHT22;33951;51.988;5.910;2022-09-09T21:08:41;16.30;99.90
47514;DHT22;33951;51.988;5.910;2022-09-09T21:11:07;16.30;99.90
47514;DHT22;33951;51.988;5.910;2022-09-09T21:13:35;16.50;99.90
47514;DHT22;33951;51.988;5.910;2022-09-09T21:16:02;16.20;99.90
47514;DHT22;33951;51.988;5.910;2022-09-09T21:18:28;16.20;99.90
47514;DHT22;33951;51.988;5.910;2022-09-09T21:20:55;16.30;99.90
47514;DHT22;33951;51.988;5.910;2022-09-09T21:23:21;16.30;99.90
47514;DHT22;33951;51.988;5.910;2022-09-09T21:25:47;16.20;99.90
47514;DHT22;33951;51.988;5.910;2022-09-09T21:28:13;16.20;99.90
47514;DHT22;33951;51.988;5.910;2022-09-09T21:30:40;16.30;99.90
47514;DHT22;33951;51.988;5.910;2022-09-09T21:33:09;16.40;99.90
47514;DHT22;33951;51.988;5.910;2022-09-09T21:35:36;16.30;99.90
47514;DHT22;33951;51.988;5.910;2022-09-09T21:38:07;16.30;99.90
47514;DHT22;33951;51.988;5.910;2022-09-09T21:40:38;16.20;99.90
47514;DHT22;33951;51.988;5.910;2022-09-09T21:43:06;16.30;99.90
47514;DHT22;33951;51.988;5.910;2022-09-09T21:45:35;16.10;99.90
47514;DHT22;33951;51.988;5.910;2022-09-09T21:48:03;16.10;99.90
47514;DHT22;33951;51.988;5.910;2022-09-09T21:50:28;16.20;99.90
47514;DHT22;33951;51.988;5.910;2022-09-09T21:52:54;16.20;99.90
47514;DHT22;33951;51.988;5.910;2022-09-09T21:55:20;16.10;99.90
47514;DHT22;33951;51.988;5.910;2022-09-09T21:57:46;16.10;99.90
47514;DHT22;33951;51.988;5.910;2022-09-09T22:00:12;16.00;99.90
47514;DHT22;33951;51.988;5.910;2022-09-09T22:02:42;16.00;99.90
47514;DHT22;33951;51.988;5.910;2022-09-09T22:05:08;16.00;99.90
47514;DHT22;33951;51.988;5.910;2022-09-09T22:07:33;16.00;99.90
47514;DHT22;33951;51.988;5.910;2022-09-09T22:09:59;16.10;99.90
47514;DHT22;33951;51.988;5.910;2022-09-09T22:12:25;16.20;99.90
47514;DHT22;33951;51.988;5.910;2022-09-09T22:14:51;16.30;99.90
47514;DHT22;33951;51.988;5.910;2022-09-09T22:17:20;16.30;99.90
47514;DHT22;33951;51.988;5.910;2022-09-09T22:19:49;16.30;99.90
47514;DHT22;33951;51.988;5.910;2022-09-09T22:22:19;16.30;99.90
47514;DHT22;33951;51.988;5.910;2022-09-09T22:24:44;16.20;99.90
47514;DHT22;33951;51.988;5.910;2022-09-09T22:27:11;16.10;99.90
47514;DHT22;33951;51.988;5.910;2022-09-09T22:29:38;15.90;99.90
47514;DHT22;33951;51.988;5.910;2022-09-09T22:32:04;15.80;99.90
47514;DHT22;33951;51.988;5.910;2022-09-09T22:34:31;15.90;99.90
47514;DHT22;33951;51.988;5.910;2022-09-09T22:36:57;16.00;99.90
47514;DHT22;33951;51.988;5.910;2022-09-09T22:39:22;16.10;99.90
47514;DHT22;33951;51.988;5.910;2022-09-09T22:41:48;15.90;99.90
47514;DHT22;33951;51.988;5.910;2022-09-09T22:44:14;15.80;99.90
47514;DHT22;33951;51.988;5.910;2022-09-09T22:46:39;15.90;99.90
47514;DHT22;33951;51.988;5.910;2022-09-09T22:49:05;15.70;99.90
47514;DHT22;33951;51.988;5.910;2022-09-09T22:51:31;15.80;99.90
47514;DHT22;33951;51.988;5.910;2022-09-09T22:54:03;15.90;99.90
47514;DHT22;33951;51.988;5.910;2022-09-09T22:56:28;15.90;99.90
47514;DHT22;33951;51.988;5.910;2022-09-09T22:58:55;15.90;99.90
47514;DHT22;33951;51.988;5.910;2022-09-09T23:01:22;15.80;99.90
47514;DHT22;33951;51.988;5.910;2022-09-09T23:03:49;15.60;99.90
47514;DHT22;33951;51.988;5.910;2022-09-09T23:06:18;15.50;99.90
47514;DHT22;33951;51.988;5.910;2022-09-09T23:08:51;15.50;99.90
47514;DHT22;33951;51.988;5.910;2022-09-09T23:11:20;15.60;99.90
47514;DHT22;33951;51.988;5.910;2022-09-09T23:13:49;15.60;99.90
47514;DHT22;33951;51.988;5.910;2022-09-09T23:16:28;15.50;99.90
47514;DHT22;33951;51.988;5.910;2022-09-09T23:18:55;15.50;99.90
47514;DHT22;33951;51.988;5.910;2022-09-09T23:21:22;15.50;99.90
47514;DHT22;33951;51.988;5.910;2022-09-09T23:23:55;15.50;99.90
47514;DHT22;33951;51.988;5.910;2022-09-09T23:26:22;15.50;99.90
47514;DHT22;33951;51.988;5.910;2022-09-09T23:28:51;15.40;99.90
47514;DHT22;33951;51.988;5.910;2022-09-09T23:31:19;15.50;99.90
47514;DHT22;33951;51.988;5.910;2022-09-09T23:33:46;15.60;99.90
47514;DHT22;33951;51.988;5.910;2022-09-09T23:36:18;15.60;99.90
47514;DHT22;33951;51.988;5.910;2022-09-09T23:38:44;15.70;99.90
47514;DHT22;33951;51.988;5.910;2022-09-09T23:41:12;15.80;99.90
47514;DHT22;33951;51.988;5.910;2022-09-09T23:43:39;15.70;99.90
47514;DHT22;33951;51.988;5.910;2022-09-09T23:46:09;15.70;99.90
47514;DHT22;33951;51.988;5.910;2022-09-09T23:48:36;15.80;99.90
47514;DHT22;33951;51.988;5.910;2022-09-09T23:51:08;15.80;99.90
47514;DHT22;33951;51.988;5.910;2022-09-09T23:53:35;15.90;99.90
47514;DHT22;33951;51.988;5.910;2022-09-09T23:56:02;15.80;99.90
47514;DHT22;33951;51.988;5.910;2022-09-09T23:58:32;15.70;99.90
